createdAt,value
2018-09-08T00:01:35.754Z,80.00
2018-09-08T00:04:04.205Z,78.60
2018-09-08T00:06:34.663Z,78.10
2018-09-08T00:09:04.990Z,78.80
2018-09-08T00:11:33.483Z,79.40
2018-09-08T00:14:01.936Z,80.00
2018-09-08T00:16:35.680Z,78.20
2018-09-08T00:19:09.740Z,78.40
2018-09-08T00:21:43.359Z,78.60
2018-09-08T00:24:17.279Z,79.00
2018-09-08T00:26:44.900Z,79.00
2018-09-08T00:29:21.169Z,79.70
2018-09-08T00:31:49.605Z,79.50
2018-09-08T00:34:18.064Z,79.30
2018-09-08T00:36:46.629Z,79.50
2018-09-08T00:39:15.128Z,78.80
2018-09-08T00:41:43.512Z,80.10
2018-09-08T00:44:11.932Z,80.60
2018-09-08T00:46:40.525Z,79.90
2018-09-08T00:49:08.924Z,79.50
2018-09-08T00:51:37.724Z,79.60
2018-09-08T00:54:06.264Z,79.30
2018-09-08T00:56:34.728Z,81.20
2018-09-08T00:59:04.373Z,79.30
2018-09-08T01:01:33.898Z,80.20
2018-09-08T01:04:02.390Z,80.20
2018-09-08T01:06:30.808Z,80.20
2018-09-08T01:08:59.272Z,80.10
2018-09-08T01:11:27.748Z,80.80
2018-09-08T01:13:56.250Z,80.70
2018-09-08T01:16:24.756Z,80.90
2018-09-08T01:18:53.182Z,80.00
2018-09-08T01:21:21.620Z,80.50
2018-09-08T01:23:52.080Z,81.80
2018-09-08T01:26:21.247Z,81.20
2018-09-08T01:28:50.653Z,81.30
2018-09-08T01:31:19.253Z,83.00
2018-09-08T01:33:47.717Z,83.10
2018-09-08T01:36:16.091Z,82.50
2018-09-08T01:38:44.513Z,82.50
2018-09-08T01:41:13.113Z,81.80
2018-09-08T01:43:41.948Z,81.80
2018-09-08T01:46:10.471Z,82.10
2018-09-08T01:48:38.890Z,83.20
2018-09-08T01:51:07.484Z,82.70
2018-09-08T01:53:35.993Z,82.40
2018-09-08T01:56:04.526Z,83.40
2018-09-08T01:58:32.957Z,81.40
2018-09-08T02:01:01.567Z,81.80
2018-09-08T02:03:29.961Z,82.50
2018-09-08T02:05:58.320Z,82.30
2018-09-08T02:08:26.699Z,82.90
2018-09-08T02:10:55.114Z,82.80
2018-09-08T02:13:23.576Z,83.70
2018-09-08T02:15:52.137Z,83.20
2018-09-08T02:18:20.580Z,82.10
2018-09-08T02:20:49.054Z,82.30
2018-09-08T02:23:17.640Z,82.60
2018-09-08T02:25:46.032Z,83.40
2018-09-08T02:28:14.492Z,83.40
2018-09-08T02:30:43.100Z,83.20
2018-09-08T02:33:11.574Z,83.60
2018-09-08T02:35:40.091Z,83.10
2018-09-08T02:38:08.536Z,84.10
2018-09-08T02:40:37.083Z,83.20
2018-09-08T02:43:05.501Z,84.30
2018-09-08T02:45:33.942Z,84.50
2018-09-08T02:48:02.401Z,84.80
2018-09-08T02:50:40.243Z,84.50
2018-09-08T02:53:09.297Z,84.20
2018-09-08T02:55:36.990Z,84.10
2018-09-08T02:58:04.322Z,84.00
2018-09-08T03:00:32.190Z,84.60
2018-09-08T03:02:59.559Z,83.60
2018-09-08T03:05:26.908Z,83.80
2018-09-08T03:07:54.264Z,83.70
2018-09-08T03:10:22.157Z,83.80
2018-09-08T03:12:49.490Z,85.00
2018-09-08T03:15:17.370Z,84.20
2018-09-08T03:17:44.734Z,84.80
2018-09-08T03:20:12.078Z,84.30
2018-09-08T03:22:39.515Z,84.90
2018-09-08T03:25:06.850Z,84.20
2018-09-08T03:27:34.246Z,84.10
2018-09-08T03:30:01.604Z,85.00
2018-09-08T03:32:28.976Z,84.70
2018-09-08T03:34:56.309Z,85.30
2018-09-08T03:37:23.706Z,85.30
2018-09-08T03:39:51.092Z,85.40
2018-09-08T03:42:18.403Z,86.00
2018-09-08T03:44:45.723Z,85.30
2018-09-08T03:47:13.027Z,85.10
2018-09-08T03:49:40.325Z,86.70
2018-09-08T03:52:07.649Z,86.00
2018-09-08T03:54:34.982Z,85.90
2018-09-08T03:57:02.288Z,85.90
2018-09-08T03:59:29.576Z,85.80
2018-09-08T04:01:56.918Z,86.20
2018-09-08T04:04:25.277Z,86.10
2018-09-08T04:06:53.780Z,85.70
2018-09-08T04:09:22.240Z,86.50
2018-09-08T04:11:50.824Z,86.40
2018-09-08T04:14:19.286Z,87.60
2018-09-08T04:16:47.765Z,86.10
2018-09-08T04:19:16.207Z,86.20
2018-09-08T04:21:44.689Z,87.00
2018-09-08T04:24:13.150Z,86.50
2018-09-08T04:26:41.601Z,86.50
2018-09-08T04:29:10.604Z,85.40
2018-09-08T04:31:39.072Z,86.20
2018-09-08T04:34:07.553Z,85.60
2018-09-08T04:36:36.047Z,85.50
2018-09-08T04:39:06.618Z,87.10
2018-09-08T04:41:35.097Z,86.40
2018-09-08T04:44:03.560Z,85.90
2018-09-08T04:46:32.109Z,85.50
2018-09-08T04:49:00.602Z,85.30
2018-09-08T04:51:29.009Z,86.90
2018-09-08T04:53:57.484Z,87.30
2018-09-08T04:56:25.959Z,85.90
2018-09-08T04:58:54.757Z,86.60
2018-09-08T05:01:23.209Z,87.30
2018-09-08T05:03:51.755Z,86.50
2018-09-08T05:06:20.246Z,86.50
2018-09-08T05:08:49.117Z,87.50
2018-09-08T05:11:17.570Z,86.90
2018-09-08T05:13:46.037Z,86.40
2018-09-08T05:16:14.397Z,86.70
2018-09-08T05:18:42.878Z,86.70
2018-09-08T05:21:11.325Z,87.10
2018-09-08T05:23:39.866Z,87.10
2018-09-08T05:26:08.657Z,86.90
2018-09-08T05:28:37.179Z,87.40
2018-09-08T05:31:05.667Z,87.50
2018-09-08T05:33:34.145Z,87.90
2018-09-08T05:36:02.646Z,88.10
2018-09-08T05:38:31.120Z,88.10
2018-09-08T05:40:59.705Z,87.80
2018-09-08T05:43:28.121Z,88.70
2018-09-08T05:45:56.680Z,89.10
2018-09-08T05:48:25.194Z,89.20
2018-09-08T05:50:53.728Z,88.90
2018-09-08T05:53:22.125Z,88.90
2018-09-08T05:55:50.594Z,88.70
2018-09-08T05:58:19.071Z,89.00
2018-09-08T06:00:47.554Z,89.70
2018-09-08T06:03:16.002Z,90.00
2018-09-08T06:05:44.546Z,89.20
2018-09-08T06:08:13.015Z,90.00
2018-09-08T06:10:41.635Z,89.90
2018-09-08T06:13:10.145Z,90.00
2018-09-08T06:15:38.944Z,90.10
2018-09-08T06:18:07.359Z,89.70
2018-09-08T06:20:35.821Z,90.00
2018-09-08T06:23:04.310Z,89.20
2018-09-08T06:25:32.863Z,89.50
2018-09-08T06:28:01.346Z,89.30
2018-09-08T06:30:30.368Z,89.20
2018-09-08T06:32:58.778Z,89.50
2018-09-08T06:35:27.426Z,89.20
2018-09-08T06:37:55.851Z,88.90
2018-09-08T06:40:24.436Z,89.40
2018-09-08T06:42:52.925Z,89.20
2018-09-08T06:45:21.353Z,88.90
2018-09-08T06:47:49.750Z,88.60
2018-09-08T06:50:18.228Z,88.60
2018-09-08T06:52:46.672Z,89.00
2018-09-08T06:55:15.149Z,89.10
2018-09-08T06:57:43.573Z,88.20
2018-09-08T07:00:12.080Z,88.40
2018-09-08T07:02:40.630Z,87.30
2018-09-08T07:05:09.220Z,87.90
2018-09-08T07:07:37.854Z,87.40
2018-09-08T07:10:06.648Z,87.70
2018-09-08T07:12:35.190Z,87.50
2018-09-08T07:15:03.606Z,87.80
2018-09-08T07:17:31.979Z,87.70
2018-09-08T07:20:00.508Z,87.60
2018-09-08T07:22:29.065Z,87.60
2018-09-08T07:24:57.610Z,86.90
2018-09-08T07:27:25.994Z,87.30
2018-09-08T07:29:54.491Z,86.50
2018-09-08T07:32:23.018Z,86.90
2018-09-08T07:34:51.466Z,87.30
2018-09-08T07:37:19.988Z,87.30
2018-09-08T07:39:48.443Z,87.00
2018-09-08T07:42:16.889Z,86.70
2018-09-08T07:44:45.466Z,86.80
2018-09-08T07:47:13.864Z,86.10
2018-09-08T07:49:42.336Z,86.50
2018-09-08T07:52:10.828Z,86.70
2018-09-08T07:54:39.513Z,86.00
2018-09-08T07:57:08.104Z,85.90
2018-09-08T07:59:37.688Z,86.00
2018-09-08T08:02:06.522Z,86.50
2018-09-08T08:04:35.087Z,85.80
2018-09-08T08:07:03.579Z,85.60
2018-09-08T08:09:33.257Z,85.60
2018-09-08T08:12:01.770Z,85.40
2018-09-08T08:14:30.656Z,84.20
2018-09-08T08:16:59.093Z,84.60
2018-09-08T08:19:27.562Z,84.70
2018-09-08T08:21:56.026Z,84.00
2018-09-08T08:24:25.056Z,84.00
2018-09-08T08:26:53.472Z,83.00
2018-09-08T08:29:21.945Z,82.80
2018-09-08T08:31:50.349Z,83.30
2018-09-08T08:34:18.887Z,83.30
2018-09-08T08:36:47.368Z,83.50
2018-09-08T08:39:15.792Z,83.00
2018-09-08T08:41:44.288Z,82.90
2018-09-08T08:44:12.810Z,81.60
2018-09-08T08:46:41.320Z,81.80
2018-09-08T08:49:09.755Z,82.10
2018-09-08T08:51:49.478Z,80.60
2018-09-08T08:54:25.887Z,81.10
2018-09-08T08:56:54.286Z,81.70
2018-09-08T08:59:22.761Z,81.40
2018-09-08T09:01:51.269Z,81.10
2018-09-08T09:04:19.800Z,80.80
2018-09-08T09:06:48.721Z,80.10
2018-09-08T09:09:17.176Z,79.60
2018-09-08T09:11:46.827Z,80.20
2018-09-08T09:14:15.095Z,79.30
2018-09-08T09:16:43.613Z,79.60
2018-09-08T09:19:35.408Z,79.20
2018-09-08T09:22:16.785Z,78.50
2018-09-08T09:25:13.666Z,78.10
2018-09-08T09:27:45.300Z,77.40
2018-09-08T09:30:16.332Z,77.00
2018-09-08T09:32:44.833Z,77.00
2018-09-08T09:35:26.292Z,75.60
2018-09-08T09:37:54.807Z,76.40
2018-09-08T09:40:23.324Z,75.70
2018-09-08T09:42:52.515Z,75.80
2018-09-08T09:45:21.668Z,76.20
2018-09-08T09:47:50.186Z,75.20
2018-09-08T09:50:19.397Z,75.20
2018-09-08T09:52:55.488Z,75.00
2018-09-08T09:55:24.086Z,77.20
2018-09-08T09:57:52.542Z,75.60
2018-09-08T10:01:30.665Z,73.50
2018-09-08T10:03:59.093Z,75.70
2018-09-08T10:06:27.621Z,74.40
2018-09-08T10:08:56.645Z,76.90
2018-09-08T10:11:27.024Z,75.30
2018-09-08T10:13:55.376Z,74.00
2018-09-08T10:16:23.794Z,74.50
2018-09-08T10:18:52.257Z,74.20
2018-09-08T10:21:20.610Z,74.20
2018-09-08T10:24:04.345Z,74.10
2018-09-08T10:26:17.489Z,73.80
2018-09-08T10:28:45.845Z,72.90
2018-09-08T10:31:17.401Z,72.80
2018-09-08T10:33:45.893Z,72.50
2018-09-08T10:36:14.484Z,72.10
2018-09-08T10:38:42.976Z,70.80
2018-09-08T10:41:11.444Z,70.50
2018-09-08T10:43:39.941Z,70.50
2018-09-08T10:46:08.469Z,69.20
2018-09-08T10:48:36.980Z,68.60
2018-09-08T10:52:14.536Z,68.70
2018-09-08T10:54:42.928Z,68.60
2018-09-08T10:57:16.101Z,69.00
2018-09-08T10:59:44.516Z,69.50
2018-09-08T11:02:13.318Z,68.50
2018-09-08T11:04:41.592Z,68.80
2018-09-08T11:07:10.593Z,68.40
2018-09-08T11:09:39.233Z,68.00
2018-09-08T11:12:07.946Z,68.10
2018-09-08T11:14:36.849Z,68.10
2018-09-08T11:17:05.357Z,68.40
2018-09-08T11:19:34.062Z,68.30
2018-09-08T11:22:02.781Z,68.70
2018-09-08T11:24:31.566Z,69.30
2018-09-08T11:27:00.175Z,68.80
2018-09-08T11:29:28.773Z,69.50
2018-09-08T11:31:57.355Z,69.40
2018-09-08T11:34:25.757Z,69.60
2018-09-08T11:36:54.254Z,70.00
2018-09-08T11:39:22.921Z,69.60
2018-09-08T11:41:52.730Z,69.60
2018-09-08T11:44:21.316Z,71.00
2018-09-08T11:46:50.200Z,69.00
2018-09-08T11:49:18.945Z,69.20
2018-09-08T11:51:47.393Z,69.30
2018-09-08T11:54:15.873Z,69.60
2018-09-08T11:56:44.344Z,70.10
2018-09-08T11:59:13.176Z,70.80
2018-09-08T12:01:41.666Z,70.20
2018-09-08T12:04:10.439Z,70.40
2018-09-08T12:06:39.581Z,69.70
2018-09-08T12:09:10.000Z,68.40
2018-09-08T12:11:48.653Z,68.40
2018-09-08T12:14:17.086Z,69.40
2018-09-08T12:16:45.590Z,69.30
2018-09-08T12:19:14.133Z,69.70
2018-09-08T12:21:44.795Z,69.20
2018-09-08T12:24:13.135Z,68.80
2018-09-08T12:26:45.069Z,69.70
2018-09-08T12:29:13.454Z,69.40
2018-09-08T12:31:41.900Z,69.20
2018-09-08T12:34:10.385Z,69.10
2018-09-08T12:36:38.831Z,68.80
2018-09-08T12:39:08.186Z,69.70
2018-09-08T12:41:36.665Z,69.20
2018-09-08T12:44:05.205Z,69.00
2018-09-08T12:46:33.816Z,68.70
2018-09-08T12:49:02.280Z,68.90
2018-09-08T12:51:31.085Z,69.20
2018-09-08T12:53:59.534Z,68.60
2018-09-08T12:56:28.243Z,69.30
2018-09-08T12:58:56.742Z,69.90
2018-09-08T13:01:25.109Z,69.10
2018-09-08T13:03:53.696Z,68.30
2018-09-08T13:06:22.366Z,69.10
2018-09-08T13:08:50.920Z,68.70
2018-09-08T13:11:19.544Z,67.40
2018-09-08T13:13:48.074Z,67.40
2018-09-08T13:16:16.945Z,67.30
2018-09-08T13:18:45.498Z,67.50
2018-09-08T13:21:13.989Z,67.00
2018-09-08T13:23:42.453Z,66.40
2018-09-08T13:26:10.892Z,66.20
2018-09-08T13:28:40.082Z,66.30
2018-09-08T13:31:08.553Z,65.90
2018-09-08T13:33:36.978Z,66.40
2018-09-08T13:36:05.483Z,66.50
2018-09-08T13:38:33.856Z,67.00
2018-09-08T13:41:02.322Z,66.70
2018-09-08T13:43:30.894Z,67.60
2018-09-08T13:45:59.366Z,65.80
2018-09-08T13:48:27.889Z,64.70
2018-09-08T13:50:56.250Z,65.20
2018-09-08T13:53:24.645Z,65.00
2018-09-08T13:55:53.132Z,65.60
2018-09-08T13:58:21.565Z,65.50
2018-09-08T14:00:50.208Z,65.00
2018-09-08T14:03:18.831Z,64.90
2018-09-08T14:05:47.427Z,63.50
2018-09-08T14:08:16.856Z,63.10
2018-09-08T14:10:46.562Z,63.10
2018-09-08T14:13:15.096Z,62.20
2018-09-08T14:15:43.592Z,62.80
2018-09-08T14:18:12.001Z,61.30
2018-09-08T14:20:40.604Z,61.50
2018-09-08T14:23:09.047Z,62.50
2018-09-08T14:25:37.533Z,61.60
2018-09-08T14:28:06.196Z,61.50
2018-09-08T14:30:35.440Z,61.50
2018-09-08T14:33:04.368Z,62.80
2018-09-08T14:35:33.070Z,62.20
2018-09-08T14:38:01.624Z,63.00
2018-09-08T14:40:30.178Z,64.20
2018-09-08T14:42:58.671Z,61.90
2018-09-08T14:45:27.210Z,61.80
2018-09-08T14:47:56.730Z,62.70
2018-09-08T14:50:25.141Z,61.90
2018-09-08T14:52:53.572Z,62.40
2018-09-08T14:55:22.061Z,62.80
2018-09-08T14:57:50.577Z,62.90
2018-09-08T15:00:19.282Z,62.20
2018-09-08T15:02:47.717Z,61.60
2018-09-08T15:05:16.156Z,61.10
2018-09-08T15:07:44.574Z,60.40
2018-09-08T15:10:13.028Z,60.40
2018-09-08T15:12:41.449Z,60.70
2018-09-08T15:15:09.833Z,61.40
2018-09-08T15:17:38.392Z,61.60
2018-09-08T15:20:06.976Z,60.00
2018-09-08T15:22:35.472Z,61.70
2018-09-08T15:25:04.007Z,60.60
2018-09-08T15:27:32.799Z,59.40
2018-09-08T15:30:01.381Z,59.40
2018-09-08T15:32:39.584Z,57.70
2018-09-08T15:35:08.005Z,57.80
2018-09-08T15:37:36.626Z,57.80
2018-09-08T15:40:05.169Z,58.50
2018-09-08T15:42:33.650Z,57.50
2018-09-08T15:45:02.064Z,57.50
2018-09-08T15:47:30.484Z,58.60
2018-09-08T15:49:58.949Z,59.30
2018-09-08T15:52:27.429Z,58.10
2018-09-08T15:54:55.867Z,59.10
2018-09-08T15:57:24.709Z,59.40
2018-09-08T15:59:53.196Z,60.10
2018-09-08T16:02:21.666Z,61.60
2018-09-08T16:04:50.206Z,58.20
2018-09-08T16:07:18.673Z,59.20
2018-09-08T16:09:47.077Z,58.50
2018-09-08T16:12:15.471Z,57.70
2018-09-08T16:14:43.971Z,59.50
2018-09-08T16:17:12.508Z,60.50
2018-09-08T16:19:41.096Z,58.90
2018-09-08T16:22:09.517Z,59.30
2018-09-08T16:24:38.242Z,59.60
2018-09-08T16:27:06.654Z,59.70
2018-09-08T16:29:35.096Z,59.10
2018-09-08T16:32:03.716Z,59.00
2018-09-08T16:34:32.113Z,59.00
2018-09-08T16:37:00.502Z,58.50
2018-09-08T16:39:29.010Z,59.70
2018-09-08T16:41:57.479Z,58.60
2018-09-08T16:44:25.953Z,59.00
2018-09-08T16:46:54.433Z,59.60
2018-09-08T16:49:22.982Z,59.60
2018-09-08T16:51:51.872Z,59.10
2018-09-08T16:54:20.346Z,60.10
2018-09-08T16:56:48.799Z,60.30
2018-09-08T16:59:17.214Z,61.50
2018-09-08T17:01:45.693Z,59.70
2018-09-08T17:04:14.121Z,59.30
2018-09-08T17:06:43.213Z,60.00
2018-09-08T17:09:14.801Z,59.70
2018-09-08T17:11:43.348Z,59.90
2018-09-08T17:14:11.936Z,60.80
2018-09-08T17:16:40.413Z,59.00
2018-09-08T17:19:08.851Z,60.00
2018-09-08T17:21:37.305Z,60.70
2018-09-08T17:24:05.676Z,61.80
2018-09-08T17:26:34.166Z,61.30
2018-09-08T17:29:02.622Z,60.90
2018-09-08T17:31:31.219Z,60.00
2018-09-08T17:33:59.680Z,59.80
2018-09-08T17:36:28.296Z,61.80
2018-09-08T17:38:57.000Z,61.20
2018-09-08T17:41:25.444Z,61.60
2018-09-08T17:43:53.910Z,61.60
2018-09-08T17:46:22.280Z,62.20
2018-09-08T17:48:50.692Z,62.20
2018-09-08T17:51:19.096Z,64.20
2018-09-08T17:53:47.452Z,61.70
2018-09-08T17:56:15.949Z,63.40
2018-09-08T17:58:44.432Z,61.90
2018-09-08T18:01:12.794Z,62.00
2018-09-08T18:03:41.246Z,64.00
2018-09-08T18:06:09.732Z,64.70
2018-09-08T18:08:38.210Z,63.80
2018-09-08T18:11:06.697Z,64.70
2018-09-08T18:13:35.221Z,65.10
2018-09-08T18:16:03.732Z,63.70
2018-09-08T18:18:32.208Z,65.00
2018-09-08T18:21:00.886Z,65.90
2018-09-08T18:23:29.460Z,64.10
2018-09-08T18:25:58.428Z,65.50
2018-09-08T18:28:26.901Z,65.90
2018-09-08T18:30:55.381Z,66.50
2018-09-08T18:33:23.864Z,66.10
2018-09-08T18:35:54.299Z,65.80
2018-09-08T18:38:23.039Z,66.60
2018-09-08T18:40:51.432Z,66.70
2018-09-08T18:43:19.959Z,65.20
2018-09-08T18:45:48.608Z,66.80
2018-09-08T18:48:17.019Z,67.00
2018-09-08T18:50:45.503Z,66.70
2018-09-08T18:53:14.667Z,66.50
2018-09-08T18:55:43.451Z,66.70
2018-09-08T18:58:12.040Z,66.50
2018-09-08T19:00:40.536Z,67.20
2018-09-08T19:03:08.997Z,67.40
2018-09-08T19:05:37.432Z,66.70
2018-09-08T19:08:05.942Z,67.10
2018-09-08T19:10:35.510Z,68.20
2018-09-08T19:13:04.749Z,69.30
2018-09-08T19:15:33.345Z,68.20
2018-09-08T19:18:01.820Z,68.80
2018-09-08T19:20:36.738Z,68.80
2018-09-08T19:23:05.414Z,69.10
2018-09-08T19:25:33.895Z,69.30
2018-09-08T19:28:02.409Z,68.90
2018-09-08T19:30:30.814Z,69.70
2018-09-08T19:32:59.242Z,69.50
2018-09-08T19:35:39.336Z,70.70
2018-09-08T19:38:08.422Z,70.00
2018-09-08T19:40:42.065Z,70.40
2018-09-08T19:43:11.254Z,70.50
2018-09-08T19:45:40.433Z,70.90
2018-09-08T19:48:11.364Z,71.10
2018-09-08T19:50:39.945Z,71.60
2018-09-08T19:53:13.660Z,71.90
2018-09-08T19:55:42.161Z,72.20
2018-09-08T19:58:15.834Z,72.20
2018-09-08T20:00:44.285Z,72.40
2018-09-08T20:03:12.776Z,73.10
2018-09-08T20:05:41.691Z,72.70
2018-09-08T20:08:10.178Z,72.10
2018-09-08T20:10:38.677Z,72.40
2018-09-08T20:13:13.812Z,73.00
2018-09-08T20:15:42.282Z,72.50
2018-09-08T20:18:10.838Z,72.90
2018-09-08T20:20:42.770Z,74.00
2018-09-08T20:23:11.202Z,73.50
2018-09-08T20:25:39.700Z,73.90
2018-09-08T20:28:08.255Z,74.00
2018-09-08T20:30:36.914Z,74.50
2018-09-08T20:33:05.410Z,74.60
2018-09-08T20:35:33.950Z,75.00
2018-09-08T20:38:02.964Z,75.10
2018-09-08T20:40:31.443Z,75.10
2018-09-08T20:43:00.053Z,75.00
2018-09-08T20:45:28.668Z,75.40
2018-09-08T20:48:01.026Z,75.50
2018-09-08T20:50:29.685Z,75.60
2018-09-08T20:52:58.600Z,75.70
2018-09-08T20:55:27.056Z,75.70
2018-09-08T20:57:55.450Z,75.70
2018-09-08T21:00:23.990Z,75.80
2018-09-08T21:02:52.618Z,75.60
2018-09-08T21:05:21.017Z,75.90
2018-09-08T21:07:49.748Z,76.10
2018-09-08T21:10:19.167Z,76.20
2018-09-08T21:12:47.779Z,76.00
2018-09-08T21:15:16.410Z,76.70
2018-09-08T21:17:44.936Z,76.60
2018-09-08T21:20:13.931Z,76.10
2018-09-08T21:22:42.425Z,76.10
2018-09-08T21:25:12.611Z,76.20
2018-09-08T21:27:41.505Z,75.10
2018-09-08T21:30:10.173Z,76.30
2018-09-08T21:32:38.756Z,76.30
2018-09-08T21:35:07.516Z,75.50
2018-09-08T21:37:36.148Z,75.90
2018-09-08T21:40:04.891Z,76.00
2018-09-08T21:42:33.305Z,75.90
2018-09-08T21:45:01.877Z,76.10
2018-09-08T21:47:31.396Z,76.30
2018-09-08T21:50:00.097Z,76.10
2018-09-08T21:52:28.709Z,76.40
2018-09-08T21:54:57.212Z,76.00
2018-09-08T21:57:25.664Z,75.90
2018-09-08T21:59:54.444Z,76.00
2018-09-08T22:02:23.858Z,75.90
2018-09-08T22:04:53.695Z,76.50
2018-09-08T22:07:22.206Z,76.00
2018-09-08T22:09:50.712Z,76.20
2018-09-08T22:12:19.000Z,76.40
2018-09-08T22:14:47.368Z,76.50
2018-09-08T22:17:19.791Z,75.10
2018-09-08T22:19:48.302Z,76.00
2018-09-08T22:22:16.716Z,76.10
2018-09-08T22:24:57.776Z,76.20
2018-09-08T22:27:26.403Z,75.40
2018-09-08T22:29:54.989Z,75.50
2018-09-08T22:32:23.419Z,76.20
2018-09-08T22:34:51.859Z,76.90
2018-09-08T22:37:20.272Z,77.20
2018-09-08T22:39:48.761Z,77.50
2018-09-08T22:42:17.210Z,77.50
2018-09-08T22:44:45.720Z,77.60
2018-09-08T22:47:14.244Z,77.80
2018-09-08T22:49:42.677Z,78.10
2018-09-08T22:52:11.329Z,78.70
2018-09-08T22:54:39.984Z,78.80
2018-09-08T22:57:08.532Z,79.00
2018-09-08T22:59:37.107Z,78.90
2018-09-08T23:02:05.439Z,78.90
2018-09-08T23:04:33.898Z,78.70
2018-09-08T23:07:02.296Z,79.10
2018-09-08T23:09:30.780Z,79.20
2018-09-08T23:11:59.197Z,79.40
2018-09-08T23:14:27.693Z,79.20
2018-09-08T23:16:56.390Z,78.60
2018-09-08T23:19:24.745Z,79.00
2018-09-08T23:21:53.227Z,78.50
2018-09-08T23:24:21.712Z,79.10
2018-09-08T23:26:50.224Z,78.90
2018-09-08T23:29:18.651Z,78.50
2018-09-08T23:31:47.634Z,78.70
2018-09-08T23:34:16.254Z,78.60
2018-09-08T23:36:44.866Z,78.80
2018-09-08T23:39:13.850Z,79.20
2018-09-08T23:41:42.342Z,78.70
2018-09-08T23:44:10.922Z,78.70
2018-09-08T23:46:39.400Z,79.00
2018-09-08T23:49:07.903Z,79.10
2018-09-08T23:51:36.280Z,79.20
2018-09-08T23:54:04.768Z,78.50
2018-09-08T23:56:33.242Z,79.30
2018-09-08T23:59:01.658Z,79.20
